Strona główna
METAR-TAF:

METAR-TAF

Lotnisko :

Grosse Ile Municipal Airport

Detroit / Grosse Ile, Michigan, Stany Zjednoczone

Szerokość geograficzna: 42-05-55N, Długość geograficzna: 083-09-40W, wysokość: 180 m

Aktualna obserwacja pogody

Raport powstał 16 minut temu, godzina 09:36 UTC
Wiatr 14 kt od północny zachód w porywach dochodzący do 19 kt
Temperatura 0°C
Wilgotność 80%
Ciśnienie 1007 hPa
Widzialność: 16.1 km
bezchmurnie

METAR: KONZ 100936Z AUTO 31014G19KT 10SM CLR 00/M03 A2974 RMK AO2 T00041034

czas: 05:52 (09:52 UTC)


TAF: brakujący

Obserwacja i prognoza pogody dla ponad 4000 lotnisk (raport METAR i TAF).

Dostępne stacje oznaczono żółtymi i czerwonymi punktami na mapie.

Najedź kursorem aby zobaczyć nazwę stacji.

Kliknij aby zobaczyć obserwacje i prognozy pogody.

Aby zmienić mapę: kliknij na zielony przycisk z czarnym krzyżykiem, aby powiększyć; na zielony przycisk z myślnikiem, aby pomniejszyć; na zielone strzałki, aby przejść do map sąsiednich.


METAR-TAF: